createdAt,value
2018-08-22T00:00:08.104Z,65.32
2018-08-22T00:02:36.301Z,66.69
2018-08-22T00:05:04.762Z,66.25
2018-08-22T00:07:32.957Z,65.87
2018-08-22T00:10:01.177Z,65.91
2018-08-22T00:12:29.385Z,65.89
2018-08-22T00:14:57.597Z,65.82
2018-08-22T00:17:25.828Z,66.19
2018-08-22T00:19:54.041Z,66.10
2018-08-22T00:22:22.261Z,65.20
2018-08-22T00:24:50.470Z,65.84
2018-08-22T00:27:18.694Z,65.46
2018-08-22T00:29:46.913Z,66.32
2018-08-22T00:32:15.161Z,65.50
2018-08-22T00:34:43.377Z,65.55
2018-08-22T00:37:11.769Z,66.18
2018-08-22T00:39:40.117Z,66.09
2018-08-22T00:42:08.325Z,66.62
2018-08-22T00:44:36.540Z,68.01
2018-08-22T00:49:31.984Z,67.26
2018-08-22T00:52:00.190Z,67.11
2018-08-22T00:54:28.389Z,66.57
2018-08-22T00:56:56.601Z,66.95
2018-08-22T00:59:24.793Z,66.70
2018-08-22T01:01:53.054Z,66.68
2018-08-22T01:04:21.249Z,67.10
2018-08-22T01:06:49.480Z,67.78
2018-08-22T01:09:17.687Z,66.83
2018-08-22T01:11:45.893Z,68.14
2018-08-22T01:14:14.148Z,67.96
2018-08-22T01:16:42.353Z,67.52
2018-08-22T01:19:10.569Z,67.83
2018-08-22T01:21:38.782Z,67.45
2018-08-22T01:24:07.005Z,68.83
2018-08-22T01:26:35.220Z,68.76
2018-08-22T01:29:03.454Z,68.36
2018-08-22T01:31:31.657Z,68.62
2018-08-22T01:33:59.877Z,68.31
2018-08-22T01:36:28.276Z,67.42
2018-08-22T01:38:56.466Z,68.15
2018-08-22T01:41:24.685Z,67.48
2018-08-22T01:43:52.894Z,68.49
2018-08-22T01:46:21.129Z,67.76
2018-08-22T01:48:49.345Z,68.41
2018-08-22T01:51:17.544Z,68.89
2018-08-22T01:53:45.822Z,68.73
2018-08-22T01:56:14.016Z,67.46
2018-08-22T01:58:42.246Z,68.09
2018-08-22T02:01:10.429Z,69.35
2018-08-22T02:03:38.665Z,69.56
2018-08-22T02:06:06.877Z,68.53
2018-08-22T02:08:35.117Z,69.06
2018-08-22T02:11:03.331Z,69.25
2018-08-22T02:13:31.545Z,69.09
2018-08-22T02:15:59.753Z,68.76
2018-08-22T02:18:27.969Z,67.73
2018-08-22T02:20:56.185Z,68.90
2018-08-22T02:23:24.401Z,68.35
2018-08-22T02:25:52.637Z,68.34
2018-08-22T02:28:20.882Z,67.55
2018-08-22T02:30:49.104Z,67.79
2018-08-22T02:33:17.341Z,69.15
2018-08-22T02:35:45.654Z,68.75
2018-08-22T02:38:18.025Z,69.34
2018-08-22T02:40:46.237Z,68.29
2018-08-22T02:43:14.445Z,68.67
2018-08-22T02:45:42.648Z,67.93
2018-08-22T02:48:10.846Z,69.90
2018-08-22T02:50:39.045Z,68.22
2018-08-22T02:53:07.345Z,69.50
2018-08-22T02:55:35.554Z,69.37
2018-08-22T02:58:03.781Z,68.93
2018-08-22T03:00:32.004Z,68.61
2018-08-22T03:03:00.210Z,69.26
2018-08-22T03:05:28.437Z,69.15
2018-08-22T03:07:56.652Z,69.66
2018-08-22T03:10:24.861Z,69.77
2018-08-22T03:12:53.069Z,69.72
2018-08-22T03:15:21.277Z,70.07
2018-08-22T03:17:49.489Z,69.67
2018-08-22T03:20:17.829Z,70.20
2018-08-22T03:22:46.057Z,69.27
2018-08-22T03:25:14.269Z,69.59
2018-08-22T03:27:42.493Z,70.31
2018-08-22T03:30:10.712Z,70.37
2018-08-22T03:32:38.912Z,70.15
2018-08-22T03:35:07.150Z,69.58
2018-08-22T03:37:35.381Z,71.11
2018-08-22T03:40:03.634Z,70.29
2018-08-22T03:42:31.874Z,71.39
2018-08-22T03:45:00.073Z,71.49
2018-08-22T03:47:28.281Z,70.68
2018-08-22T03:49:56.489Z,70.82
2018-08-22T03:52:24.729Z,70.66
2018-08-22T03:54:52.945Z,70.60
2018-08-22T03:57:21.149Z,70.20
2018-08-22T03:59:49.366Z,70.65
2018-08-22T04:02:17.565Z,70.90
2018-08-22T04:04:45.797Z,70.83
2018-08-22T04:07:14.005Z,71.19
2018-08-22T04:09:42.253Z,70.96
2018-08-22T04:12:10.473Z,72.11
2018-08-22T04:14:38.697Z,71.20
2018-08-22T04:17:06.949Z,70.81
2018-08-22T04:19:35.241Z,70.45
2018-08-22T04:22:04.557Z,71.14
2018-08-22T04:24:32.883Z,71.83
2018-08-22T04:27:01.094Z,71.34
2018-08-22T04:29:29.317Z,72.12
2018-08-22T04:31:57.726Z,72.17
2018-08-22T04:34:26.186Z,72.23
2018-08-22T04:36:54.394Z,71.14
2018-08-22T04:39:22.609Z,71.28
2018-08-22T04:41:50.813Z,71.87
2018-08-22T04:44:19.038Z,71.14
2018-08-22T04:46:47.253Z,71.83
2018-08-22T04:49:15.497Z,71.53
2018-08-22T04:51:43.717Z,70.99
2018-08-22T04:54:11.929Z,71.45
2018-08-22T04:56:40.142Z,71.88
2018-08-22T04:59:08.337Z,71.99
2018-08-22T05:01:36.557Z,71.98
2018-08-22T05:04:04.877Z,71.23
2018-08-22T05:06:33.086Z,70.59
2018-08-22T05:09:01.309Z,71.20
2018-08-22T05:11:29.505Z,71.14
2018-08-22T05:13:57.722Z,71.75
2018-08-22T05:16:25.925Z,71.72
2018-08-22T05:18:54.149Z,71.70
2018-08-22T05:21:22.374Z,71.68
2018-08-22T05:23:50.593Z,71.87
2018-08-22T05:26:18.836Z,72.63
2018-08-22T05:28:47.109Z,72.65
2018-08-22T05:31:15.344Z,73.00
2018-08-22T05:33:43.637Z,73.13
2018-08-22T05:36:11.846Z,72.29
2018-08-22T05:38:40.061Z,72.21
2018-08-22T05:41:08.342Z,73.28
2018-08-22T05:43:36.568Z,72.80
2018-08-22T05:46:04.773Z,72.63
2018-08-22T05:48:32.985Z,73.68
2018-08-22T05:51:01.213Z,73.11
2018-08-22T05:53:29.420Z,73.15
2018-08-22T05:55:57.644Z,73.42
2018-08-22T05:58:25.858Z,72.52
2018-08-22T06:00:54.090Z,74.16
2018-08-22T06:03:22.364Z,72.86
2018-08-22T06:05:50.521Z,72.61
2018-08-22T06:08:18.893Z,72.87
2018-08-22T06:10:47.101Z,72.15
2018-08-22T06:13:15.326Z,71.55
2018-08-22T06:15:43.557Z,71.27
2018-08-22T06:18:11.757Z,71.90
2018-08-22T06:20:39.977Z,71.26
2018-08-22T06:23:08.189Z,70.84
2018-08-22T06:25:36.437Z,70.55
2018-08-22T06:28:04.645Z,71.54
2018-08-22T06:30:32.857Z,70.12
2018-08-22T06:33:01.119Z,68.25
2018-08-22T06:35:29.301Z,67.49
2018-08-22T06:37:57.573Z,65.98
2018-08-22T06:40:25.784Z,65.41
2018-08-22T06:42:54.307Z,64.54
2018-08-22T06:45:22.915Z,64.74
2018-08-22T06:47:51.157Z,64.22
2018-08-22T06:50:19.491Z,63.63
2018-08-22T06:52:47.569Z,63.31
2018-08-22T06:55:15.798Z,62.38
2018-08-22T06:57:44.433Z,62.81
2018-08-22T07:00:12.646Z,62.26
2018-08-22T07:02:41.478Z,61.53
2018-08-22T07:05:09.673Z,61.20
2018-08-22T07:07:38.185Z,62.08
2018-08-22T07:10:06.433Z,62.39
2018-08-22T07:12:34.866Z,62.16
2018-08-22T07:15:03.097Z,61.39
2018-08-22T07:17:31.294Z,60.76
2018-08-22T07:19:59.510Z,60.25
2018-08-22T07:22:27.713Z,58.62
2018-08-22T07:24:55.925Z,56.98
2018-08-22T07:27:24.137Z,56.64
2018-08-22T07:29:52.345Z,55.98
2018-08-22T07:32:20.781Z,56.83
2018-08-22T07:34:49.001Z,53.47
2018-08-22T07:37:17.214Z,54.46
2018-08-22T07:39:45.422Z,54.04
2018-08-22T07:42:13.641Z,52.33
2018-08-22T07:44:41.849Z,53.35
2018-08-22T07:47:10.108Z,52.04
2018-08-22T07:49:38.293Z,52.61
2018-08-22T07:52:06.649Z,50.51
2018-08-22T07:54:40.253Z,50.61
2018-08-22T07:57:08.601Z,49.56
2018-08-22T07:59:36.814Z,51.44
2018-08-22T08:02:05.041Z,50.35
2018-08-22T08:04:33.267Z,49.88
2018-08-22T08:07:01.555Z,48.01
2018-08-22T08:09:29.749Z,48.62
2018-08-22T08:11:57.985Z,48.10
2018-08-22T08:14:26.189Z,48.04
2018-08-22T08:16:54.405Z,47.50
2018-08-22T08:19:22.606Z,47.34
2018-08-22T08:21:50.841Z,45.53
2018-08-22T08:24:19.105Z,48.75
2018-08-22T08:26:47.392Z,46.86
2018-08-22T08:29:15.589Z,46.34
2018-08-22T08:31:43.997Z,44.68
2018-08-22T08:34:12.218Z,43.91
2018-08-22T08:36:40.409Z,43.97
2018-08-22T08:39:10.302Z,44.38
2018-08-22T08:41:38.627Z,46.72
2018-08-22T08:44:07.209Z,44.79
2018-08-22T08:46:35.441Z,45.04
2018-08-22T08:49:03.706Z,45.30
2018-08-22T08:51:31.957Z,45.14
2018-08-22T08:54:00.173Z,44.09
2018-08-22T08:56:28.546Z,43.89
2018-08-22T08:58:56.743Z,43.06
2018-08-22T09:01:24.932Z,42.56
2018-08-22T09:03:53.295Z,44.86
2018-08-22T09:06:21.390Z,40.66
2018-08-22T09:08:49.573Z,43.04
2018-08-22T09:11:17.781Z,41.16
2018-08-22T09:13:53.081Z,39.63
2018-08-22T09:16:21.738Z,39.94
2018-08-22T09:18:51.107Z,38.71
2018-08-22T09:21:19.389Z,40.12
2018-08-22T09:23:47.586Z,40.43
2018-08-22T09:26:16.882Z,40.55
2018-08-22T09:28:45.264Z,38.97
2018-08-22T09:31:13.572Z,41.88
2018-08-22T09:33:42.959Z,41.10
2018-08-22T09:36:11.152Z,39.56
2018-08-22T09:38:39.440Z,39.82
2018-08-22T09:41:07.746Z,39.93
2018-08-22T09:43:35.977Z,41.73
2018-08-22T09:46:04.193Z,40.67
2018-08-22T09:48:32.681Z,39.60
2018-08-22T09:51:00.982Z,40.54
2018-08-22T09:53:29.282Z,39.48
2018-08-22T09:55:57.573Z,39.75
2018-08-22T09:58:25.785Z,40.44
2018-08-22T10:00:59.524Z,41.89
2018-08-22T10:03:30.261Z,40.90
2018-08-22T10:05:58.465Z,39.10
2018-08-22T10:08:26.673Z,40.93
2018-08-22T10:10:55.007Z,40.29
2018-08-22T10:13:23.237Z,38.94
2018-08-22T10:15:51.461Z,39.50
2018-08-22T10:18:19.661Z,39.66
2018-08-22T10:20:47.899Z,39.13
2018-08-22T10:23:16.093Z,38.39
2018-08-22T10:25:44.307Z,38.96
2018-08-22T10:28:12.545Z,40.74
2018-08-22T10:30:40.761Z,41.51
2018-08-22T10:33:09.027Z,41.90
2018-08-22T10:35:37.221Z,41.81
2018-08-22T10:38:05.433Z,40.07
2018-08-22T10:40:33.648Z,38.91
2018-08-22T10:43:01.862Z,39.73
2018-08-22T10:45:30.349Z,40.47
2018-08-22T10:47:58.612Z,39.31
2018-08-22T10:50:26.865Z,38.54
2018-08-22T10:52:55.081Z,37.86
2018-08-22T10:55:23.678Z,39.31
2018-08-22T10:57:51.845Z,38.39
2018-08-22T11:00:20.133Z,39.37
2018-08-22T11:02:48.349Z,39.60
2018-08-22T11:05:16.587Z,39.87
2018-08-22T11:07:44.787Z,39.48
2018-08-22T11:10:13.062Z,39.97
2018-08-22T11:12:41.269Z,39.33
2018-08-22T11:15:09.501Z,39.36
2018-08-22T11:17:37.726Z,38.45
2018-08-22T11:20:05.957Z,38.29
2018-08-22T11:22:45.329Z,38.89
2018-08-22T11:25:24.902Z,38.20
2018-08-22T11:28:04.457Z,38.06
2018-08-22T11:30:44.165Z,38.23
2018-08-22T11:33:23.763Z,38.65
2018-08-22T11:35:50.926Z,38.50
2018-08-22T11:38:19.185Z,38.38
2018-08-22T11:40:47.397Z,37.89
2018-08-22T11:43:15.650Z,38.78
2018-08-22T11:45:43.853Z,37.00
2018-08-22T11:48:12.072Z,37.76
2018-08-22T11:50:40.289Z,37.23
2018-08-22T11:53:08.558Z,38.14
2018-08-22T11:55:36.774Z,38.11
2018-08-22T11:58:05.011Z,37.69
2018-08-22T12:00:33.257Z,38.21
2018-08-22T12:03:01.505Z,36.85
2018-08-22T12:05:29.773Z,37.39
2018-08-22T12:07:58.005Z,36.25
2018-08-22T12:10:30.922Z,36.94
2018-08-22T12:13:00.405Z,37.07
2018-08-22T12:15:28.677Z,36.33
2018-08-22T12:17:57.490Z,36.61
2018-08-22T12:20:25.734Z,36.11
2018-08-22T12:22:53.997Z,37.02
2018-08-22T12:25:22.454Z,35.66
2018-08-22T12:27:50.857Z,36.30
2018-08-22T12:30:19.049Z,35.99
2018-08-22T12:32:47.294Z,35.95
2018-08-22T12:35:15.565Z,36.19
2018-08-22T12:37:43.812Z,35.49
2018-08-22T12:40:12.014Z,35.05
2018-08-22T12:42:40.218Z,35.34
2018-08-22T12:45:09.093Z,35.59
2018-08-22T12:47:37.291Z,34.46
2018-08-22T12:50:05.667Z,35.38
2018-08-22T12:52:33.913Z,35.78
2018-08-22T12:55:02.297Z,35.94
2018-08-22T12:57:30.512Z,34.20
2018-08-22T12:59:58.733Z,34.88
2018-08-22T13:02:27.161Z,34.77
2018-08-22T13:04:55.385Z,34.93
2018-08-22T13:07:23.590Z,33.66
2018-08-22T13:09:51.825Z,35.10
2018-08-22T13:12:20.037Z,34.23
2018-08-22T13:14:48.285Z,34.12
2018-08-22T13:17:16.508Z,34.51
2018-08-22T13:19:44.809Z,35.02
2018-08-22T13:22:13.049Z,34.07
2018-08-22T13:24:41.370Z,33.77
2018-08-22T13:27:09.521Z,34.61
2018-08-22T13:29:37.738Z,33.62
2018-08-22T13:32:06.002Z,34.51
2018-08-22T13:34:34.221Z,34.55
2018-08-22T13:37:04.540Z,33.66
2018-08-22T13:39:32.770Z,34.32
2018-08-22T13:42:00.979Z,34.41
2018-08-22T13:44:29.211Z,34.43
2018-08-22T13:46:57.430Z,34.14
2018-08-22T13:49:25.661Z,34.98
2018-08-22T13:51:53.867Z,33.88
2018-08-22T13:54:22.090Z,33.75
2018-08-22T13:56:50.306Z,33.75
2018-08-22T13:59:18.529Z,35.15
2018-08-22T14:01:46.783Z,35.02
2018-08-22T14:04:14.993Z,33.92
2018-08-22T14:06:43.266Z,35.34
2018-08-22T14:09:12.318Z,34.37
2018-08-22T14:11:40.866Z,34.58
2018-08-22T14:14:09.077Z,35.76
2018-08-22T14:16:37.297Z,33.83
2018-08-22T14:19:05.709Z,35.06
2018-08-22T14:21:33.973Z,34.57
2018-08-22T14:24:03.256Z,35.02
2018-08-22T14:26:31.525Z,34.85
2018-08-22T14:28:59.777Z,34.81
2018-08-22T14:31:28.081Z,35.31
2018-08-22T14:33:56.304Z,34.64
2018-08-22T14:36:24.517Z,34.60
2018-08-22T14:38:52.712Z,34.27
2018-08-22T14:41:20.937Z,34.85
2018-08-22T14:43:49.153Z,34.17
2018-08-22T14:46:17.370Z,34.36
2018-08-22T14:48:45.597Z,34.30
2018-08-22T14:51:13.818Z,34.66
2018-08-22T14:53:42.038Z,35.17
2018-08-22T14:56:10.487Z,35.34
2018-08-22T14:58:38.601Z,35.05
2018-08-22T15:01:06.957Z,35.36
2018-08-22T15:03:35.342Z,35.66
2018-08-22T15:06:03.409Z,36.04
2018-08-22T15:08:31.626Z,34.93
2018-08-22T15:10:59.842Z,35.56
2018-08-22T15:13:28.054Z,35.45
2018-08-22T15:15:56.289Z,36.17
2018-08-22T15:18:24.513Z,35.55
2018-08-22T15:20:52.774Z,35.65
2018-08-22T15:23:20.970Z,35.14
2018-08-22T15:25:49.189Z,36.50
2018-08-22T15:28:17.413Z,36.34
2018-08-22T15:30:45.633Z,35.63
2018-08-22T15:33:13.929Z,35.84
2018-08-22T15:35:42.153Z,34.89
2018-08-22T15:38:10.441Z,35.62
2018-08-22T15:40:38.653Z,36.12
2018-08-22T15:43:06.886Z,36.81
2018-08-22T15:45:35.101Z,37.23
2018-08-22T15:48:03.402Z,36.46
2018-08-22T15:50:31.629Z,36.38
2018-08-22T15:52:59.888Z,37.37
2018-08-22T15:55:28.117Z,35.55
2018-08-22T15:58:00.018Z,35.40
2018-08-22T16:00:37.456Z,35.86
2018-08-22T16:03:06.922Z,37.24
2018-08-22T16:05:36.008Z,37.00
2018-08-22T16:08:05.296Z,36.40
2018-08-22T16:10:33.501Z,37.16
2018-08-22T16:13:02.158Z,36.70
2018-08-22T16:15:34.936Z,37.29
2018-08-22T16:18:05.466Z,38.47
2018-08-22T16:20:40.638Z,38.23
2018-08-22T16:23:08.950Z,38.82
2018-08-22T16:25:42.499Z,38.06
2018-08-22T16:28:10.748Z,38.05
2018-08-22T16:30:39.057Z,38.15
2018-08-22T16:33:07.225Z,38.24
2018-08-22T16:35:35.570Z,39.28
2018-08-22T16:38:06.873Z,38.28
2018-08-22T16:40:36.585Z,39.01
2018-08-22T16:43:04.882Z,38.43
2018-08-22T16:45:40.053Z,38.78
2018-08-22T16:48:08.298Z,39.44
2018-08-22T16:50:36.501Z,39.54
2018-08-22T16:53:04.736Z,40.18
2018-08-22T16:55:32.954Z,39.34
2018-08-22T16:58:01.222Z,39.78
2018-08-22T17:00:36.861Z,40.92
2018-08-22T17:03:06.557Z,40.52
2018-08-22T17:05:35.131Z,40.60
2018-08-22T17:08:08.465Z,41.08
2018-08-22T17:10:54.654Z,41.11
2018-08-22T17:13:31.745Z,42.03
2018-08-22T17:16:01.276Z,41.79
2018-08-22T17:18:29.489Z,42.45
2018-08-22T17:20:57.957Z,42.41
2018-08-22T17:23:26.174Z,42.75
2018-08-22T17:25:54.405Z,42.64
2018-08-22T17:28:28.530Z,42.67
2018-08-22T17:30:56.873Z,42.21
2018-08-22T17:33:29.653Z,42.38
2018-08-22T17:35:58.053Z,43.08
2018-08-22T17:38:26.470Z,43.39
2018-08-22T17:40:54.669Z,42.99
2018-08-22T17:43:22.913Z,43.17
2018-08-22T17:45:51.145Z,44.16
2018-08-22T17:48:19.434Z,43.40
2018-08-22T17:50:47.693Z,43.18
2018-08-22T17:53:15.921Z,44.27
2018-08-22T17:55:44.149Z,44.58
2018-08-22T17:58:12.386Z,44.79
2018-08-22T18:00:40.690Z,43.87
2018-08-22T18:03:08.914Z,45.36
2018-08-22T18:05:37.247Z,44.51
2018-08-22T18:08:06.918Z,44.43
2018-08-22T18:10:37.813Z,44.63
2018-08-22T18:13:10.457Z,45.14
2018-08-22T18:15:38.689Z,44.91
2018-08-22T18:18:06.929Z,45.16
2018-08-22T18:20:38.837Z,46.29
2018-08-22T18:23:07.042Z,46.45
2018-08-22T18:25:35.473Z,45.87
2018-08-22T18:28:05.361Z,46.31
2018-08-22T18:30:33.895Z,46.45
2018-08-22T18:33:02.365Z,45.71
2018-08-22T18:35:30.577Z,47.27
2018-08-22T18:37:59.599Z,47.25
2018-08-22T18:40:30.283Z,46.81
2018-08-22T18:43:01.172Z,46.14
2018-08-22T18:45:29.777Z,46.70
2018-08-22T18:47:58.296Z,46.86
2018-08-22T18:50:26.510Z,47.40
2018-08-22T18:52:58.950Z,46.32
2018-08-22T18:55:33.253Z,47.09
2018-08-22T18:58:03.100Z,47.46
2018-08-22T19:00:34.681Z,46.62
2018-08-22T19:03:03.005Z,48.01
2018-08-22T19:05:34.401Z,47.19
2018-08-22T19:08:09.169Z,48.21
2018-08-22T19:10:38.510Z,47.76
2018-08-22T19:13:12.141Z,48.23
2018-08-22T19:15:40.386Z,48.84
2018-08-22T19:18:09.455Z,47.87
2018-08-22T19:20:38.081Z,48.89
2018-08-22T19:23:06.297Z,48.23
2018-08-22T19:25:34.538Z,48.83
2018-08-22T19:28:03.265Z,48.74
2018-08-22T19:30:34.097Z,49.71
2018-08-22T19:33:02.325Z,48.59
2018-08-22T19:35:30.549Z,49.06
2018-08-22T19:38:04.108Z,48.70
2018-08-22T19:40:32.344Z,49.17
2018-08-22T19:43:00.892Z,50.44
2018-08-22T19:45:29.120Z,50.03
2018-08-22T19:47:57.337Z,50.47
2018-08-22T19:50:25.561Z,49.95
2018-08-22T19:52:53.786Z,51.66
2018-08-22T19:55:21.989Z,51.53
2018-08-22T19:57:50.210Z,51.34
2018-08-22T20:00:18.518Z,51.96
2018-08-22T20:02:46.691Z,52.52
2018-08-22T20:05:14.903Z,52.42
2018-08-22T20:07:43.126Z,51.65
2018-08-22T20:10:11.641Z,52.54
2018-08-22T20:12:45.093Z,52.18
2018-08-22T20:15:13.317Z,51.98
2018-08-22T20:17:41.638Z,51.88
2018-08-22T20:20:10.845Z,52.34
2018-08-22T20:22:41.090Z,53.15
2018-08-22T20:25:09.865Z,52.71
2018-08-22T20:27:38.281Z,52.80
2018-08-22T20:30:12.408Z,53.04
2018-08-22T20:32:58.213Z,54.23
2018-08-22T20:35:34.072Z,53.20
2018-08-22T20:38:03.553Z,54.01
2018-08-22T20:40:31.794Z,53.82
2018-08-22T20:43:00.006Z,54.50
2018-08-22T20:45:34.549Z,54.28
2018-08-22T20:48:08.130Z,54.66
2018-08-22T20:50:37.637Z,56.82
2018-08-22T20:53:07.458Z,54.52
2018-08-22T20:55:35.722Z,54.63
2018-08-22T20:58:04.302Z,54.39
2018-08-22T21:00:33.900Z,54.95
2018-08-22T21:03:02.187Z,55.46
2018-08-22T21:05:30.374Z,55.29
2018-08-22T21:07:58.594Z,55.43
2018-08-22T21:10:26.814Z,56.12
2018-08-22T21:12:55.029Z,57.03
2018-08-22T21:15:24.274Z,56.46
2018-08-22T21:17:52.491Z,57.18
2018-08-22T21:20:23.651Z,56.88
2018-08-22T21:22:52.458Z,56.09
2018-08-22T21:25:20.671Z,57.01
2018-08-22T21:27:49.619Z,56.23
2018-08-22T21:30:18.148Z,57.22
2018-08-22T21:32:47.469Z,57.36
2018-08-22T21:35:25.665Z,58.69
2018-08-22T21:37:57.995Z,58.45
2018-08-22T21:40:26.205Z,58.39
2018-08-22T21:42:54.405Z,58.32
2018-08-22T21:45:22.626Z,57.47
2018-08-22T21:48:02.813Z,58.33
2018-08-22T21:50:31.057Z,57.89
2018-08-22T21:53:02.436Z,57.93
2018-08-22T21:55:46.309Z,58.52
2018-08-22T21:58:14.785Z,58.09
2018-08-22T22:00:43.017Z,58.10
2018-08-22T22:03:12.191Z,58.82
2018-08-22T22:05:44.957Z,58.59
2018-08-22T22:08:13.181Z,59.57
2018-08-22T22:10:41.761Z,59.32
2018-08-22T22:13:10.555Z,59.08
2018-08-22T22:15:45.105Z,58.51
2018-08-22T22:18:13.347Z,58.28
2018-08-22T22:20:41.806Z,57.78
2018-08-22T22:23:10.009Z,57.79
2018-08-22T22:25:38.226Z,59.21
2018-08-22T22:28:06.443Z,59.08
2018-08-22T22:30:34.650Z,58.53
2018-08-22T22:33:02.869Z,58.73
2018-08-22T22:35:37.460Z,58.98
2018-08-22T22:38:07.998Z,58.32
2018-08-22T22:40:36.474Z,59.25
2018-08-22T22:43:05.901Z,58.57
2018-08-22T22:45:34.129Z,58.92
2018-08-22T22:48:02.346Z,57.45
2018-08-22T22:50:30.574Z,57.61
2018-08-22T22:52:58.800Z,58.24
2018-08-22T22:55:27.033Z,57.63
2018-08-22T22:57:55.253Z,58.51
2018-08-22T23:00:23.473Z,57.89
2018-08-22T23:02:57.126Z,58.68
2018-08-22T23:05:29.582Z,59.34
2018-08-22T23:07:57.814Z,58.76
2018-08-22T23:10:26.013Z,59.58
2018-08-22T23:12:54.253Z,59.64
2018-08-22T23:15:26.165Z,60.61
2018-08-22T23:17:56.198Z,59.67
2018-08-22T23:20:38.773Z,59.40
2018-08-22T23:23:22.349Z,60.40
2018-08-22T23:25:50.758Z,59.99
2018-08-22T23:28:19.005Z,61.54
2018-08-22T23:30:47.263Z,60.01
2018-08-22T23:33:15.477Z,60.29
2018-08-22T23:35:43.695Z,61.24
2018-08-22T23:38:17.409Z,60.30
2018-08-22T23:40:47.063Z,61.17
2018-08-22T23:43:15.309Z,60.54
2018-08-22T23:45:59.977Z,61.15
2018-08-22T23:48:34.583Z,60.64
2018-08-22T23:51:04.206Z,61.47
2018-08-22T23:53:48.581Z,60.81
2018-08-22T23:56:18.894Z,60.74
2018-08-22T23:58:47.909Z,61.87
